createdAt,value
2017-07-18T00:00:15.616Z,0
2017-07-18T00:00:56.070Z,0
2017-07-18T00:01:36.531Z,0
2017-07-18T00:02:16.985Z,0
2017-07-18T00:02:57.436Z,0
2017-07-18T00:03:37.892Z,0
2017-07-18T00:04:18.352Z,0
2017-07-18T00:04:58.802Z,0
2017-07-18T00:05:39.254Z,0
2017-07-18T00:06:19.711Z,0
2017-07-18T00:07:00.178Z,0
2017-07-18T00:07:40.628Z,0
2017-07-18T00:08:21.083Z,0
2017-07-18T00:09:01.532Z,0
2017-07-18T00:09:41.984Z,0
2017-07-18T00:10:22.441Z,0
2017-07-18T00:11:02.880Z,0
2017-07-18T00:11:43.334Z,0
2017-07-18T00:12:23.785Z,0
2017-07-18T00:13:04.232Z,0
2017-07-18T00:13:44.679Z,0
2017-07-18T00:14:25.133Z,0
2017-07-18T00:15:05.585Z,0
2017-07-18T00:15:46.042Z,0
2017-07-18T00:16:26.502Z,0
2017-07-18T00:17:06.949Z,0
2017-07-18T00:17:47.398Z,0
2017-07-18T00:18:27.851Z,0
2017-07-18T00:19:08.306Z,0
2017-07-18T00:19:48.767Z,0
2017-07-18T00:20:29.229Z,0
2017-07-18T00:21:09.679Z,0
2017-07-18T00:21:50.130Z,0
2017-07-18T00:22:30.587Z,0
2017-07-18T00:23:11.041Z,0
2017-07-18T00:23:51.498Z,0
2017-07-18T00:24:31.946Z,0
2017-07-18T00:25:12.398Z,0
2017-07-18T00:25:52.849Z,0
2017-07-18T00:26:33.304Z,0
2017-07-18T00:27:13.747Z,0
2017-07-18T00:27:54.202Z,0
2017-07-18T00:28:34.658Z,0
2017-07-18T00:29:15.114Z,0
2017-07-18T00:29:55.569Z,0
2017-07-18T00:30:36.025Z,0
2017-07-18T00:31:16.472Z,0
2017-07-18T00:31:56.940Z,0
2017-07-18T00:32:37.395Z,0
2017-07-18T00:33:17.846Z,0
2017-07-18T00:33:58.288Z,0
2017-07-18T00:34:38.742Z,0
2017-07-18T00:35:19.194Z,0
2017-07-18T00:35:59.675Z,0
2017-07-18T00:36:40.124Z,0
2017-07-18T00:37:20.580Z,0
2017-07-18T00:38:01.036Z,0
2017-07-18T00:38:41.485Z,0
2017-07-18T00:39:21.937Z,0
2017-07-18T00:40:02.394Z,0
2017-07-18T00:40:42.847Z,0
2017-07-18T00:41:23.305Z,0
2017-07-18T00:42:03.758Z,0
2017-07-18T00:42:44.215Z,0
2017-07-18T00:43:24.667Z,0
2017-07-18T00:44:05.118Z,0
2017-07-18T00:44:45.577Z,0
2017-07-18T00:45:26.035Z,0
2017-07-18T00:46:06.486Z,0
2017-07-18T00:46:46.940Z,0
2017-07-18T00:47:27.389Z,0
2017-07-18T00:48:07.845Z,0
2017-07-18T00:48:48.295Z,0
2017-07-18T00:49:28.747Z,0
2017-07-18T00:50:09.202Z,0
2017-07-18T00:50:49.656Z,0
2017-07-18T00:51:30.110Z,0
2017-07-18T00:52:10.570Z,0
2017-07-18T00:52:51.023Z,0
2017-07-18T00:53:31.478Z,0
2017-07-18T00:54:11.933Z,0
2017-07-18T00:54:52.378Z,0
2017-07-18T00:55:32.829Z,0
2017-07-18T00:56:13.285Z,0
2017-07-18T00:56:53.734Z,0
2017-07-18T00:57:34.192Z,0
2017-07-18T00:58:14.649Z,0
2017-07-18T00:58:55.106Z,0
2017-07-18T00:59:35.557Z,0
2017-07-18T01:00:16.011Z,0
2017-07-18T01:00:56.469Z,0
2017-07-18T01:01:36.919Z,0
2017-07-18T01:02:17.381Z,0
2017-07-18T01:02:57.826Z,0
2017-07-18T01:03:38.277Z,0
2017-07-18T01:04:18.735Z,0
2017-07-18T01:04:59.187Z,0
2017-07-18T01:05:39.644Z,0
2017-07-18T01:06:20.102Z,0
2017-07-18T01:07:00.552Z,0
2017-07-18T01:07:41.005Z,0
2017-07-18T01:08:21.464Z,0
2017-07-18T01:09:01.917Z,0
2017-07-18T01:09:42.371Z,0
2017-07-18T01:10:22.821Z,0
2017-07-18T01:11:03.274Z,0
2017-07-18T01:11:43.725Z,0
2017-07-18T01:12:24.179Z,0
2017-07-18T01:13:04.632Z,0
2017-07-18T01:13:45.115Z,0
2017-07-18T01:14:25.571Z,0
2017-07-18T01:15:06.027Z,0
2017-07-18T01:15:46.508Z,0
2017-07-18T01:16:26.945Z,0
2017-07-18T01:17:07.397Z,0
2017-07-18T01:17:47.851Z,0
2017-07-18T01:18:28.309Z,0
2017-07-18T01:19:08.760Z,0
2017-07-18T01:19:49.222Z,0
2017-07-18T01:20:29.674Z,0
2017-07-18T01:21:10.121Z,0
2017-07-18T01:21:50.576Z,0
2017-07-18T01:22:31.026Z,0
2017-07-18T01:23:11.477Z,0
2017-07-18T01:23:51.930Z,0
2017-07-18T01:24:32.373Z,0
2017-07-18T01:25:12.824Z,0
2017-07-18T01:25:53.277Z,0
2017-07-18T01:26:33.721Z,0
2017-07-18T01:27:14.182Z,0
2017-07-18T01:27:54.635Z,0
2017-07-18T01:28:35.089Z,0
2017-07-18T01:29:15.543Z,0
2017-07-18T01:29:56.002Z,0
2017-07-18T01:30:36.456Z,0
2017-07-18T01:31:16.909Z,0
2017-07-18T01:31:57.364Z,0
2017-07-18T01:32:37.818Z,0
2017-07-18T01:33:18.276Z,0
2017-07-18T01:33:58.729Z,0
2017-07-18T01:34:39.179Z,0
2017-07-18T01:35:19.631Z,0
2017-07-18T01:36:00.077Z,0
2017-07-18T01:36:40.534Z,0
2017-07-18T01:37:20.982Z,0
2017-07-18T01:38:01.437Z,0
2017-07-18T01:38:41.889Z,0
2017-07-18T01:39:22.361Z,0
2017-07-18T01:40:02.812Z,0
2017-07-18T01:40:43.263Z,0
2017-07-18T01:41:23.716Z,0
2017-07-18T01:42:04.177Z,0
2017-07-18T01:42:44.634Z,0
2017-07-18T01:43:25.088Z,0
2017-07-18T01:44:05.550Z,0
2017-07-18T01:44:46.006Z,0
2017-07-18T01:45:26.458Z,0
2017-07-18T01:46:06.915Z,0
2017-07-18T01:46:47.371Z,0
2017-07-18T01:47:27.824Z,0
2017-07-18T01:48:08.278Z,0
2017-07-18T01:48:48.735Z,0
2017-07-18T01:49:29.199Z,0
2017-07-18T01:50:09.646Z,0
2017-07-18T01:50:50.097Z,0
2017-07-18T01:51:30.551Z,0
2017-07-18T01:52:11.007Z,0
2017-07-18T01:52:51.463Z,0
2017-07-18T01:53:31.914Z,0
2017-07-18T01:54:12.369Z,0
2017-07-18T01:54:52.827Z,0
2017-07-18T01:55:33.282Z,0
2017-07-18T01:56:13.744Z,0
2017-07-18T01:56:54.201Z,0
2017-07-18T01:57:34.653Z,0
2017-07-18T01:58:15.105Z,0
2017-07-18T01:58:55.561Z,0
2017-07-18T01:59:36.012Z,0
2017-07-18T02:00:16.468Z,0
2017-07-18T02:00:56.927Z,0
2017-07-18T02:01:37.380Z,0
2017-07-18T02:02:17.829Z,0
2017-07-18T02:02:58.284Z,0
2017-07-18T02:03:38.741Z,0
2017-07-18T02:04:19.202Z,0
2017-07-18T02:04:59.659Z,0
2017-07-18T02:05:40.116Z,0
2017-07-18T02:06:20.568Z,0
2017-07-18T02:07:01.029Z,0
2017-07-18T02:07:41.497Z,0
2017-07-18T02:08:21.933Z,0
2017-07-18T02:09:02.387Z,0
2017-07-18T02:09:42.858Z,0
2017-07-18T02:10:23.314Z,0
2017-07-18T02:11:03.777Z,0
2017-07-18T02:11:44.232Z,0
2017-07-18T02:12:24.690Z,0
2017-07-18T02:13:05.145Z,0
2017-07-18T02:13:45.594Z,0
2017-07-18T02:14:26.044Z,0
2017-07-18T02:15:06.499Z,0
2017-07-18T02:15:46.956Z,0
2017-07-18T02:16:27.411Z,0
2017-07-18T02:17:07.863Z,0
2017-07-18T02:17:48.319Z,0
2017-07-18T02:18:28.803Z,0
2017-07-18T02:19:09.260Z,0
2017-07-18T02:19:49.710Z,0
2017-07-18T02:20:30.165Z,0
2017-07-18T02:21:10.630Z,0
2017-07-18T02:21:51.076Z,0
2017-07-18T02:22:31.536Z,0
2017-07-18T02:23:11.993Z,0
2017-07-18T02:23:52.446Z,0
2017-07-18T02:24:32.896Z,0
2017-07-18T02:25:13.348Z,0
2017-07-18T02:25:53.799Z,0
2017-07-18T02:26:34.265Z,0
2017-07-18T02:27:14.721Z,0
2017-07-18T02:27:55.179Z,0
2017-07-18T02:28:35.641Z,0
2017-07-18T02:29:16.097Z,0
2017-07-18T02:29:56.549Z,0
2017-07-18T02:30:36.999Z,0
2017-07-18T02:31:17.455Z,0
2017-07-18T02:31:57.910Z,0
2017-07-18T02:32:38.363Z,0
2017-07-18T02:33:18.824Z,0
2017-07-18T02:33:59.275Z,0
2017-07-18T02:34:39.730Z,0
2017-07-18T02:35:20.187Z,0
2017-07-18T02:36:00.642Z,0
2017-07-18T02:36:41.095Z,0
2017-07-18T02:37:21.541Z,0
2017-07-18T02:38:01.992Z,0
2017-07-18T02:38:42.451Z,0
2017-07-18T02:39:22.917Z,0
2017-07-18T02:40:03.355Z,0
2017-07-18T02:40:43.801Z,0
2017-07-18T02:41:24.258Z,0
2017-07-18T02:42:04.716Z,0
2017-07-18T02:42:45.169Z,0
2017-07-18T02:43:25.639Z,0
2017-07-18T02:44:06.077Z,0
2017-07-18T02:44:46.539Z,0
2017-07-18T02:45:26.983Z,0
2017-07-18T02:46:07.432Z,0
2017-07-18T02:48:25.420Z,0
2017-07-18T02:49:05.873Z,0
2017-07-18T02:49:46.323Z,0
2017-07-18T02:50:26.779Z,0
2017-07-18T02:51:07.211Z,0
2017-07-18T02:51:47.658Z,0
2017-07-18T02:52:28.113Z,0
2017-07-18T02:53:08.564Z,0
2017-07-18T02:53:49.017Z,0
2017-07-18T02:54:29.471Z,0
2017-07-18T02:55:09.930Z,0
2017-07-18T02:55:50.382Z,0
2017-07-18T02:56:30.831Z,0
2017-07-18T02:57:11.260Z,0
2017-07-18T02:57:51.658Z,0
2017-07-18T02:58:32.055Z,0
2017-07-18T02:59:12.480Z,0
2017-07-18T02:59:52.936Z,0
2017-07-18T03:00:33.386Z,0
2017-07-18T03:01:13.838Z,0
2017-07-18T03:01:54.292Z,0
2017-07-18T03:02:34.751Z,0
2017-07-18T03:03:15.206Z,0
2017-07-18T03:03:55.655Z,0
2017-07-18T03:04:36.113Z,0
2017-07-18T03:05:16.561Z,0
2017-07-18T03:05:57.019Z,0
2017-07-18T03:06:37.473Z,0
2017-07-18T03:07:17.929Z,0
2017-07-18T03:07:58.382Z,0
2017-07-18T03:08:38.835Z,0
2017-07-18T03:09:19.283Z,0
2017-07-18T03:09:59.706Z,0
2017-07-18T03:10:40.158Z,0
2017-07-18T03:11:20.628Z,0
2017-07-18T03:12:01.048Z,0
2017-07-18T03:12:41.495Z,0
2017-07-18T03:13:21.951Z,0
2017-07-18T03:14:02.416Z,0
2017-07-18T03:14:42.864Z,0
2017-07-18T03:15:23.310Z,0
2017-07-18T03:16:03.767Z,0
2017-07-18T03:16:44.225Z,0
2017-07-18T03:17:24.677Z,0
2017-07-18T03:18:05.135Z,0
2017-07-18T03:18:45.588Z,0
2017-07-18T03:19:26.042Z,0
2017-07-18T03:20:06.498Z,0
2017-07-18T03:20:46.954Z,0
2017-07-18T03:21:27.403Z,0
2017-07-18T03:22:07.865Z,0
2017-07-18T03:22:48.321Z,0
2017-07-18T03:23:28.771Z,0
2017-07-18T03:24:09.232Z,0
2017-07-18T03:24:49.689Z,0
2017-07-18T03:25:30.146Z,0
2017-07-18T03:26:10.591Z,0
2017-07-18T03:26:51.044Z,0
2017-07-18T03:27:31.499Z,0
2017-07-18T03:28:11.951Z,0
2017-07-18T03:28:52.401Z,0
2017-07-18T03:29:32.859Z,0
2017-07-18T03:30:13.312Z,0
2017-07-18T03:30:53.772Z,0
2017-07-18T03:31:34.224Z,0
2017-07-18T03:32:14.677Z,0
2017-07-18T03:32:55.128Z,0
2017-07-18T03:33:35.580Z,0
2017-07-18T03:34:16.028Z,0
2017-07-18T03:34:56.495Z,0
2017-07-18T03:35:36.947Z,0
2017-07-18T03:36:17.401Z,0
2017-07-18T03:36:57.866Z,0
2017-07-18T03:37:38.314Z,0
2017-07-18T03:38:18.768Z,0
2017-07-18T03:38:59.219Z,0
2017-07-18T03:39:39.713Z,0
2017-07-18T03:40:20.131Z,0
2017-07-18T03:41:00.603Z,0
2017-07-18T03:41:41.057Z,0
2017-07-18T03:42:21.494Z,0
2017-07-18T03:43:01.947Z,0
2017-07-18T03:43:42.398Z,0
2017-07-18T03:44:22.860Z,0
2017-07-18T03:45:03.312Z,0
2017-07-18T03:45:44.039Z,0
2017-07-18T03:46:24.492Z,0
2017-07-18T03:47:04.959Z,0
2017-07-18T03:47:45.418Z,0
2017-07-18T03:48:25.875Z,0
2017-07-18T03:49:06.323Z,0
2017-07-18T03:49:46.758Z,0
2017-07-18T03:50:27.202Z,0
2017-07-18T03:51:07.657Z,0
2017-07-18T03:51:48.104Z,0
2017-07-18T03:52:28.557Z,0
2017-07-18T03:53:09.002Z,0
2017-07-18T03:53:49.455Z,0
2017-07-18T03:54:29.916Z,0
2017-07-18T03:55:10.362Z,0
2017-07-18T03:55:50.819Z,0
2017-07-18T03:56:31.281Z,0
2017-07-18T03:57:11.729Z,0
2017-07-18T03:57:52.203Z,0
2017-07-18T03:58:32.622Z,0
2017-07-18T03:59:13.072Z,0
2017-07-18T03:59:53.532Z,0
2017-07-18T04:00:33.986Z,0
2017-07-18T04:01:14.445Z,0
2017-07-18T04:01:54.898Z,0
2017-07-18T04:02:35.348Z,0
2017-07-18T04:03:15.804Z,0
2017-07-18T04:03:56.255Z,0
2017-07-18T04:04:36.711Z,0
2017-07-18T04:05:17.164Z,0
2017-07-18T04:05:57.660Z,0
2017-07-18T04:06:38.115Z,0
2017-07-18T04:07:18.564Z,0
2017-07-18T04:07:59.017Z,0
2017-07-18T04:08:39.475Z,0
2017-07-18T04:09:19.928Z,0
2017-07-18T04:10:00.368Z,0
2017-07-18T04:10:40.822Z,0
2017-07-18T04:11:21.278Z,0
2017-07-18T04:12:01.737Z,0
2017-07-18T04:12:42.192Z,0
2017-07-18T04:13:22.644Z,0
2017-07-18T04:14:03.101Z,0
2017-07-18T04:14:43.557Z,0
2017-07-18T04:15:24.010Z,0
2017-07-18T04:16:04.465Z,0
2017-07-18T04:16:44.914Z,0
2017-07-18T04:17:25.368Z,0
2017-07-18T04:18:05.823Z,0
2017-07-18T04:18:46.290Z,0
2017-07-18T04:19:26.744Z,0
2017-07-18T04:20:07.193Z,0
2017-07-18T04:20:47.641Z,0
2017-07-18T04:21:28.088Z,0
2017-07-18T04:22:08.542Z,0
2017-07-18T04:22:48.994Z,0
2017-07-18T04:23:29.432Z,0
2017-07-18T04:24:09.879Z,0
2017-07-18T04:24:50.334Z,0
2017-07-18T04:25:30.782Z,0
2017-07-18T04:26:11.238Z,0
2017-07-18T04:26:51.695Z,0
2017-07-18T04:27:32.150Z,0
2017-07-18T04:28:12.602Z,0
2017-07-18T04:28:53.053Z,0
2017-07-18T04:29:33.509Z,0
2017-07-18T04:30:13.983Z,0
2017-07-18T04:30:54.424Z,0
2017-07-18T04:31:34.876Z,0
2017-07-18T04:32:15.332Z,0
2017-07-18T04:32:55.789Z,0
2017-07-18T04:33:36.242Z,0
2017-07-18T04:34:16.695Z,0
2017-07-18T04:34:57.147Z,0
2017-07-18T04:35:37.600Z,0
2017-07-18T04:36:18.053Z,0
2017-07-18T04:36:58.509Z,0
2017-07-18T04:37:38.962Z,5
2017-07-18T04:38:19.420Z,5
2017-07-18T04:38:59.875Z,5
2017-07-18T04:39:40.326Z,5
2017-07-18T04:40:20.793Z,5
2017-07-18T04:41:01.254Z,5
2017-07-18T04:41:41.708Z,5
2017-07-18T04:42:22.162Z,5
2017-07-18T04:43:02.617Z,5
2017-07-18T04:43:43.069Z,5
2017-07-18T04:44:23.522Z,5
2017-07-18T04:45:03.976Z,5
2017-07-18T04:45:44.428Z,5
2017-07-18T04:46:24.891Z,5
2017-07-18T04:47:05.342Z,5
2017-07-18T04:47:45.793Z,5
2017-07-18T04:48:26.252Z,5
2017-07-18T04:49:06.709Z,5
2017-07-18T04:49:47.163Z,5
2017-07-18T04:50:27.626Z,5
2017-07-18T04:51:08.093Z,5
2017-07-18T04:51:48.533Z,5
2017-07-18T04:52:28.987Z,5
2017-07-18T04:53:09.437Z,5
2017-07-18T04:53:49.880Z,5
2017-07-18T04:54:30.336Z,5
2017-07-18T04:55:10.793Z,5
2017-07-18T04:55:51.253Z,5
2017-07-18T04:56:31.729Z,5
2017-07-18T04:57:12.185Z,5
2017-07-18T04:57:52.632Z,5
2017-07-18T04:58:33.098Z,5
2017-07-18T04:59:13.547Z,5
2017-07-18T04:59:54.001Z,5
2017-07-18T05:00:34.453Z,5
2017-07-18T05:01:14.907Z,5
2017-07-18T05:01:55.356Z,5
2017-07-18T05:02:35.812Z,5
2017-07-18T05:03:16.265Z,5
2017-07-18T05:03:56.997Z,5
2017-07-18T05:04:37.181Z,5
2017-07-18T05:05:17.672Z,5
2017-07-18T05:07:30.525Z,5
2017-07-18T05:08:10.978Z,5
2017-07-18T05:08:51.422Z,5
2017-07-18T05:09:31.872Z,5
2017-07-18T05:10:12.339Z,5
2017-07-18T05:10:52.792Z,5
2017-07-18T05:11:33.244Z,5
2017-07-18T05:12:13.697Z,5
2017-07-18T05:12:54.145Z,5
2017-07-18T05:13:34.599Z,5
2017-07-18T05:14:15.061Z,5
2017-07-18T05:14:55.505Z,5
2017-07-18T05:15:35.956Z,5
2017-07-18T05:16:16.410Z,5
2017-07-18T05:16:56.870Z,5
2017-07-18T05:17:37.318Z,5
2017-07-18T05:18:17.771Z,5
2017-07-18T05:18:58.224Z,5
2017-07-18T05:19:38.679Z,5
2017-07-18T05:20:19.132Z,5
2017-07-18T05:20:59.582Z,5
2017-07-18T05:21:40.030Z,5
2017-07-18T05:22:20.483Z,5
2017-07-18T05:23:00.931Z,10
2017-07-18T05:23:41.388Z,10
2017-07-18T05:24:21.850Z,10
2017-07-18T05:25:02.302Z,10
2017-07-18T05:25:42.754Z,10
2017-07-18T05:26:23.212Z,10
2017-07-18T05:27:03.671Z,10
2017-07-18T05:27:44.127Z,10
2017-07-18T05:28:24.587Z,10
2017-07-18T05:29:05.045Z,10
2017-07-18T05:29:45.563Z,10
2017-07-18T05:30:26.010Z,10
2017-07-18T05:31:06.463Z,10
2017-07-18T05:31:46.918Z,10
2017-07-18T05:32:27.375Z,10
2017-07-18T05:33:07.833Z,10
2017-07-18T05:33:48.285Z,10
2017-07-18T05:34:28.760Z,10
2017-07-18T05:35:09.203Z,10
2017-07-18T05:35:49.657Z,10
2017-07-18T05:36:30.111Z,10
2017-07-18T05:37:10.563Z,10
2017-07-18T05:37:51.019Z,15
2017-07-18T05:38:31.472Z,15
2017-07-18T05:39:11.921Z,15
2017-07-18T05:39:52.381Z,15
2017-07-18T05:40:32.846Z,15
2017-07-18T05:41:13.283Z,15
2017-07-18T05:41:53.737Z,15
2017-07-18T05:42:34.236Z,15
2017-07-18T05:43:14.680Z,15
2017-07-18T05:43:55.135Z,15
2017-07-18T05:44:35.580Z,20
2017-07-18T05:45:16.036Z,20
2017-07-18T05:45:56.489Z,20
2017-07-18T05:46:36.942Z,20
2017-07-18T05:47:17.397Z,25
2017-07-18T05:47:57.861Z,25
2017-07-18T05:48:38.308Z,25
2017-07-18T05:49:18.766Z,25
2017-07-18T05:49:59.225Z,25
2017-07-18T05:50:39.662Z,25
2017-07-18T05:51:20.117Z,25
2017-07-18T05:52:00.580Z,25
2017-07-18T05:52:41.022Z,25
2017-07-18T05:53:21.484Z,25
2017-07-18T05:54:02.034Z,25
2017-07-18T05:54:42.487Z,25
2017-07-18T05:55:22.939Z,25
2017-07-18T05:56:03.398Z,25
2017-07-18T05:56:43.850Z,25
2017-07-18T05:57:24.305Z,25
2017-07-18T05:58:04.766Z,25
2017-07-18T05:58:45.216Z,25
2017-07-18T05:59:25.670Z,25
2017-07-18T06:00:06.295Z,25
2017-07-18T06:00:46.561Z,25
2017-07-18T06:01:27.022Z,25
2017-07-18T06:02:07.580Z,20
2017-07-18T06:02:48.042Z,20
2017-07-18T06:03:28.498Z,25
2017-07-18T06:04:08.960Z,25
2017-07-18T06:04:49.421Z,20
2017-07-18T06:05:29.860Z,20
2017-07-18T06:06:10.287Z,25
2017-07-18T06:06:50.764Z,30
2017-07-18T06:07:31.303Z,30
2017-07-18T06:08:11.700Z,30
2017-07-18T06:08:52.138Z,30
2017-07-18T06:09:32.592Z,30
2017-07-18T06:10:13.044Z,30
2017-07-18T06:10:53.495Z,30
2017-07-18T06:11:33.947Z,30
2017-07-18T06:12:14.403Z,30
2017-07-18T06:12:54.853Z,30
2017-07-18T06:13:35.307Z,30
2017-07-18T06:14:15.763Z,30
2017-07-18T06:14:56.211Z,30
2017-07-18T06:15:36.667Z,30
2017-07-18T06:16:17.124Z,30
2017-07-18T06:16:57.572Z,30
2017-07-18T06:17:38.027Z,30
2017-07-18T06:18:18.482Z,30
2017-07-18T06:18:58.937Z,30
2017-07-18T06:19:39.388Z,30
2017-07-18T06:20:19.846Z,30
2017-07-18T06:21:00.316Z,30
2017-07-18T06:21:40.755Z,30
2017-07-18T06:22:21.212Z,30
2017-07-18T06:23:01.653Z,30
2017-07-18T06:23:42.106Z,30
2017-07-18T06:24:22.567Z,30
2017-07-18T06:25:03.014Z,30
2017-07-18T06:25:43.467Z,35
2017-07-18T06:26:23.918Z,35
2017-07-18T06:27:04.377Z,35
2017-07-18T06:27:44.823Z,35
2017-07-18T06:28:25.281Z,35
2017-07-18T06:29:05.761Z,35
2017-07-18T06:29:46.207Z,35
2017-07-18T06:30:26.659Z,35
2017-07-18T06:31:07.112Z,35
2017-07-18T06:31:47.569Z,30
2017-07-18T06:32:28.025Z,30
2017-07-18T06:33:08.483Z,30
2017-07-18T06:33:48.945Z,30
2017-07-18T06:34:29.396Z,30
2017-07-18T06:35:09.871Z,30
2017-07-18T06:35:50.307Z,30
2017-07-18T06:36:30.771Z,30
2017-07-18T06:37:11.225Z,25
2017-07-18T06:37:51.683Z,25
2017-07-18T06:38:32.135Z,25
2017-07-18T06:39:12.587Z,25
2017-07-18T06:39:53.070Z,30
2017-07-18T06:40:33.527Z,30
2017-07-18T06:41:13.979Z,25
2017-07-18T06:41:54.433Z,25
2017-07-18T06:42:34.890Z,25
2017-07-18T06:43:15.340Z,25
2017-07-18T06:43:55.794Z,25
2017-07-18T06:44:36.251Z,25
2017-07-18T06:45:16.705Z,35
2017-07-18T06:45:57.154Z,30
2017-07-18T06:46:37.613Z,30
2017-07-18T06:47:18.065Z,30
2017-07-18T06:47:58.519Z,30
2017-07-18T06:48:38.973Z,35
2017-07-18T06:49:19.429Z,30
2017-07-18T06:49:59.880Z,30
2017-07-18T06:50:40.333Z,30
2017-07-18T06:51:20.782Z,25
2017-07-18T06:52:01.231Z,25
2017-07-18T06:52:41.679Z,25
2017-07-18T06:53:22.132Z,25
2017-07-18T06:54:02.575Z,30
2017-07-18T06:54:43.037Z,30
2017-07-18T06:55:23.482Z,35
2017-07-18T06:56:03.931Z,35
2017-07-18T06:56:44.380Z,35
2017-07-18T06:57:24.829Z,30
2017-07-18T06:58:05.316Z,30
2017-07-18T06:58:45.770Z,30
2017-07-18T06:59:26.222Z,35
2017-07-18T07:00:06.719Z,35
2017-07-18T07:00:47.175Z,40
2017-07-18T07:01:27.625Z,40
2017-07-18T07:02:08.072Z,40
2017-07-18T07:02:48.539Z,40
2017-07-18T07:03:28.980Z,40
2017-07-18T07:04:09.430Z,45
2017-07-18T07:04:49.890Z,45
2017-07-18T07:05:30.347Z,45
2017-07-18T07:06:10.798Z,45
2017-07-18T07:06:51.244Z,45
2017-07-18T07:07:31.705Z,45
2017-07-18T07:08:12.163Z,45
2017-07-18T07:08:52.612Z,45
2017-07-18T07:09:33.062Z,45
2017-07-18T07:10:13.495Z,45
2017-07-18T07:10:53.964Z,45
2017-07-18T07:11:34.385Z,45
2017-07-18T07:12:14.945Z,45
2017-07-18T07:12:55.392Z,45
2017-07-18T07:13:35.820Z,45
2017-07-18T07:14:16.269Z,50
2017-07-18T07:14:56.722Z,35
2017-07-18T07:15:37.188Z,50
2017-07-18T07:16:17.653Z,45
2017-07-18T07:16:58.109Z,50
2017-07-18T07:17:38.544Z,45
2017-07-18T07:18:18.992Z,50
2017-07-18T07:18:59.452Z,50
2017-07-18T07:19:39.927Z,50
2017-07-18T07:20:20.327Z,50
2017-07-18T07:21:00.775Z,55
2017-07-18T07:21:41.199Z,55
2017-07-18T07:22:21.681Z,55
2017-07-18T07:23:02.125Z,50
2017-07-18T07:23:42.511Z,55
2017-07-18T07:26:00.714Z,55
2017-07-18T07:26:41.174Z,55
2017-07-18T07:27:21.629Z,55
2017-07-18T07:28:02.084Z,55
2017-07-18T07:28:42.534Z,55
2017-07-18T07:29:22.985Z,55
2017-07-18T07:30:03.439Z,55
2017-07-18T07:30:43.893Z,55
2017-07-18T07:31:24.359Z,55
2017-07-18T07:32:04.782Z,55
2017-07-18T07:32:45.229Z,55
2017-07-18T07:33:25.681Z,55
2017-07-18T07:34:06.149Z,55
2017-07-18T07:34:46.604Z,60
2017-07-18T07:35:27.088Z,60
2017-07-18T07:36:07.558Z,60
2017-07-18T07:36:48.007Z,60
2017-07-18T07:37:28.459Z,60
2017-07-18T07:38:08.913Z,60
2017-07-18T07:38:49.354Z,60
2017-07-18T07:39:29.808Z,60
2017-07-18T07:40:10.268Z,60
2017-07-18T07:40:50.732Z,60
2017-07-18T07:41:31.174Z,60
2017-07-18T07:42:11.675Z,60
2017-07-18T07:42:52.114Z,60
2017-07-18T07:43:32.568Z,60
2017-07-18T07:44:13.016Z,60
2017-07-18T07:44:53.470Z,60
2017-07-18T07:45:33.917Z,60
2017-07-18T07:46:14.373Z,65
2017-07-18T07:46:54.823Z,60
2017-07-18T07:47:35.313Z,60
2017-07-18T07:48:15.753Z,60
2017-07-18T07:48:56.189Z,55
2017-07-18T07:49:36.648Z,60
2017-07-18T07:50:17.100Z,60
2017-07-18T07:50:57.556Z,60
2017-07-18T07:51:38.012Z,60
2017-07-18T07:52:18.466Z,60
2017-07-18T07:52:58.921Z,65
2017-07-18T07:53:39.390Z,65
2017-07-18T07:54:19.815Z,60
2017-07-18T07:55:00.269Z,65
2017-07-18T07:55:40.727Z,60
2017-07-18T07:56:21.177Z,60
2017-07-18T07:57:01.634Z,65
2017-07-18T07:57:42.089Z,60
2017-07-18T07:58:22.545Z,60
2017-07-18T07:59:02.997Z,60
2017-07-18T07:59:43.432Z,65
2017-07-18T08:00:23.898Z,65
2017-07-18T08:01:04.349Z,65
2017-07-18T08:01:44.835Z,65
2017-07-18T08:02:25.234Z,65
2017-07-18T08:03:05.674Z,65
2017-07-18T08:03:46.128Z,65
2017-07-18T08:04:26.584Z,70
2017-07-18T08:05:07.048Z,70
2017-07-18T08:05:47.504Z,70
2017-07-18T08:06:27.964Z,70
2017-07-18T08:07:08.406Z,75
2017-07-18T08:07:48.863Z,75
2017-07-18T08:08:29.311Z,70
2017-07-18T08:09:09.744Z,70
2017-07-18T08:09:50.224Z,70
2017-07-18T08:10:30.644Z,75
2017-07-18T08:11:11.079Z,75
2017-07-18T08:11:51.513Z,70
2017-07-18T08:12:31.922Z,70
2017-07-18T08:13:12.334Z,70
2017-07-18T08:13:52.783Z,70
2017-07-18T08:14:33.246Z,65
2017-07-18T08:15:13.697Z,65
2017-07-18T08:15:54.145Z,70
2017-07-18T08:16:34.602Z,70
2017-07-18T08:17:15.056Z,70
2017-07-18T08:17:55.513Z,70
2017-07-18T08:18:35.952Z,75
2017-07-18T08:19:18.194Z,75
2017-07-18T08:19:58.671Z,75
2017-07-18T08:20:39.123Z,75
2017-07-18T08:21:19.580Z,75
2017-07-18T08:22:00.034Z,75
2017-07-18T08:22:40.468Z,75
2017-07-18T08:23:20.922Z,75
2017-07-18T08:24:01.354Z,75
2017-07-18T08:24:41.811Z,75
2017-07-18T08:25:22.205Z,75
2017-07-18T08:26:02.694Z,75
2017-07-18T08:26:43.143Z,80
2017-07-18T08:27:23.603Z,75
2017-07-18T08:28:04.053Z,75
2017-07-18T08:28:44.507Z,75
2017-07-18T08:29:24.964Z,75
2017-07-18T08:30:05.415Z,75
2017-07-18T08:30:45.871Z,80
2017-07-18T08:31:26.326Z,80
2017-07-18T08:32:06.768Z,80
2017-07-18T08:32:47.220Z,80
2017-07-18T08:33:27.678Z,80
2017-07-18T08:34:08.130Z,80
2017-07-18T08:34:48.601Z,80
2017-07-18T08:35:29.042Z,75
2017-07-18T08:36:09.478Z,75
2017-07-18T08:36:49.890Z,70
2017-07-18T08:37:30.365Z,85
2017-07-18T08:38:10.808Z,85
2017-07-18T08:38:51.256Z,85
2017-07-18T08:39:31.710Z,85
2017-07-18T08:40:12.167Z,85
2017-07-18T08:40:52.631Z,85
2017-07-18T08:41:33.087Z,90
2017-07-18T08:42:13.552Z,85
2017-07-18T08:42:53.991Z,85
2017-07-18T08:43:34.434Z,85
2017-07-18T08:44:14.885Z,85
2017-07-18T08:44:55.285Z,85
2017-07-18T08:45:35.734Z,85
2017-07-18T08:46:16.181Z,85
2017-07-18T08:46:56.637Z,85
2017-07-18T08:47:37.077Z,85
2017-07-18T08:48:17.536Z,85
2017-07-18T08:48:57.977Z,85
2017-07-18T08:49:38.418Z,80
2017-07-18T08:50:18.842Z,80
2017-07-18T08:50:59.266Z,85
2017-07-18T08:51:39.730Z,80
2017-07-18T08:52:20.144Z,80
2017-07-18T08:53:00.574Z,80
2017-07-18T08:53:41.008Z,80
2017-07-18T08:54:21.360Z,85
2017-07-18T08:55:01.801Z,85
2017-07-18T08:55:42.222Z,85
2017-07-18T08:56:22.669Z,90
2017-07-18T08:57:03.042Z,90
2017-07-18T08:57:43.451Z,90
2017-07-18T08:58:23.916Z,90
2017-07-18T08:59:04.307Z,90
2017-07-18T08:59:44.742Z,95
2017-07-18T09:00:25.165Z,95
2017-07-18T09:01:05.631Z,95
2017-07-18T09:01:46.046Z,95
2017-07-18T09:02:26.446Z,95
2017-07-18T09:03:06.860Z,90
2017-07-18T09:03:47.295Z,95
2017-07-18T09:04:27.721Z,95
2017-07-18T09:05:08.138Z,95
2017-07-18T09:05:48.544Z,100
2017-07-18T09:06:29.003Z,100
2017-07-18T09:07:09.409Z,100
2017-07-18T09:07:49.794Z,100
2017-07-18T09:08:30.205Z,95
2017-07-18T09:09:10.639Z,100
2017-07-18T09:09:51.034Z,100
2017-07-18T09:10:31.502Z,100
2017-07-18T09:11:11.937Z,105
2017-07-18T09:11:52.391Z,100
2017-07-18T09:12:32.835Z,100
2017-07-18T09:13:13.286Z,95
2017-07-18T09:13:53.733Z,95
2017-07-18T09:14:34.184Z,90
2017-07-18T09:15:14.638Z,90
2017-07-18T09:15:55.101Z,95
2017-07-18T09:16:35.556Z,95
2017-07-18T09:17:16.001Z,95
2017-07-18T09:17:56.454Z,85
2017-07-18T09:18:36.909Z,90
2017-07-18T09:19:17.362Z,90
2017-07-18T09:19:57.839Z,85
2017-07-18T09:20:38.297Z,80
2017-07-18T09:21:18.758Z,90
2017-07-18T09:21:59.211Z,90
2017-07-18T09:22:39.659Z,95
2017-07-18T09:23:20.112Z,95
2017-07-18T09:24:00.563Z,95
2017-07-18T09:24:41.013Z,100
2017-07-18T09:25:21.468Z,100
2017-07-18T09:27:39.368Z,95
2017-07-18T09:28:19.815Z,100
2017-07-18T09:29:00.267Z,100
2017-07-18T09:29:40.740Z,100
2017-07-18T09:30:21.186Z,95
2017-07-18T09:31:01.635Z,100
2017-07-18T09:31:42.082Z,100
2017-07-18T09:32:22.536Z,100
2017-07-18T09:33:02.994Z,95
2017-07-18T09:33:43.452Z,100
2017-07-18T09:34:23.900Z,100
2017-07-18T09:35:04.355Z,100
2017-07-18T09:35:44.805Z,100
2017-07-18T09:36:25.252Z,100
2017-07-18T09:37:05.712Z,95
2017-07-18T09:37:46.172Z,95
2017-07-18T09:38:26.612Z,100
2017-07-18T09:39:07.066Z,95
2017-07-18T09:39:47.522Z,95
2017-07-18T09:40:27.971Z,95
2017-07-18T09:41:08.418Z,100
2017-07-18T09:41:48.875Z,100
2017-07-18T09:42:29.322Z,100
2017-07-18T09:43:09.784Z,100
2017-07-18T09:43:50.244Z,100
2017-07-18T09:44:30.697Z,100
2017-07-18T09:45:11.141Z,100
2017-07-18T09:45:51.588Z,105
2017-07-18T09:46:32.037Z,105
2017-07-18T09:47:12.489Z,105
2017-07-18T09:47:52.935Z,105
2017-07-18T09:48:33.386Z,105
2017-07-18T09:49:13.832Z,105
2017-07-18T09:49:54.281Z,105
2017-07-18T09:50:34.739Z,105
2017-07-18T09:51:15.195Z,105
2017-07-18T09:51:55.659Z,105
2017-07-18T09:52:36.110Z,105
2017-07-18T09:53:16.559Z,105